• °C
  • Pobieranie danych...
wx

PRINT OUT SECTION, show »

METAR EPCE 271500Z VRB01KT 9999 FEW011 OVC033 01/01
Q0995 RMK 011 097 8/1=

METAR EPDA 271500Z 12004KT 9999 BKN048 03/01
Q0995 RMK 026 090 7/7=

METAR EPDE 271500Z 22004KT 9999 BKN020 02/M01 Q0997 RMK 020 079 7/7=

METAR EPIR 271500Z AUTO 10002KT VV010 02/01 Q0995 RMK 019 092 ///=

METAR EPKS 271500Z 11006KT 1500 BR OVC004 01/M00 Q0995 RMK 007 095
8/8=

METAR EPLK 271500Z 17006KT 5000 BR OVC005 00/00 Q0996 RMK
001 100 8/8=

METAR EPLY 271500Z AUTO 20006KT 175V241 VV005 00/M01 Q0996 RMK 004
093 ///=

METAR EPMB 271500Z 25006KT 9999 FEW028 OVC050 03/02 Q0996 RMK 027 097
8/2=

METAR EPMI 271500Z 13006KT 9999 BKN100 01/M01 Q0994 RMK 009 087 6/6=

METAR EPMM 271500Z 26009KT 9999 BKN010 OVC015 01/01 Q0996 RMK 010
100 8/7=

METAR EPNA 271500Z NIL=

METAR EPOK 271500Z 28006KT 7000 -RA BKN016 OVC028 02/01
Q0995 RMK 020 096 8/6=

METAR EPPR 271500Z 26004KT 5000 BR BKN039 02/01 Q0996 RMK 022 093
7/7=

METAR COR EPPW 271500Z VRB02KT 0600 R28R/P2000N FZFG OVC002 M00/M00
Q0995 RMK M002 100 8/8=

METAR EPRA 271500Z 29002KT 9999 BKN017 02/M01 Q0997 RMK 019 082 6/6=

METAR EPSN 271500Z 12006KT 9999 BKN080 01/M01 Q0994 RMK 010 087 7/7=

METAR EPTM 271500Z VRB02KT 8000 BKN006 01/00 Q0997 RMK 007 095 7/7=
 METAR EPOK
Lokalizacja:EPOK Oksywie
Czas:15:00 UTC
Średni kierunek wiatru:280 °
Średnia prędkość wiatru:6 węzłów
Widzialność:7 kilometrów
Opad:deszcz
Intensywność:słaba
Pierwsza warstwa chmur:5/8 do 7/8, wysokość podstawy 1600 FT
Druga warstwa chmur:8/8, wysokość podstawy 2800 FT
Temperatura powietrza:2 °C
Temperatura punktu rosy:1 °C
Ciśnienie QNH:995 hPa
Dokładna temperatura powietrza:2,0 °C
Dokładna wilgotność względna:96 %
Zachmurzenie przez wszystkie piętra chmur:8/8
Zachmurzenie przez chmury niskie:6/8



IMGW-PIB Sites